createdAt,value
2023-03-30T00:00:16.104Z,1003.13
2023-03-30T00:01:16.108Z,1003.11
2023-03-30T00:02:16.097Z,1003.13
2023-03-30T00:03:16.179Z,1003.06
2023-03-30T00:04:16.240Z,1003.04
2023-03-30T00:05:16.253Z,1003.06
2023-03-30T00:06:16.090Z,1002.99
2023-03-30T00:07:16.082Z,1002.98
2023-03-30T00:08:16.089Z,1002.97
2023-03-30T00:09:16.074Z,1002.97
2023-03-30T00:10:16.076Z,1002.97
2023-03-30T00:11:16.072Z,1002.91
2023-03-30T00:12:16.067Z,1002.89
2023-03-30T00:13:16.067Z,1002.91
2023-03-30T00:14:16.062Z,1002.89
2023-03-30T00:15:16.058Z,1002.85
2023-03-30T00:16:16.087Z,1002.87
2023-03-30T00:17:16.051Z,1002.85
2023-03-30T00:18:16.066Z,1002.87
2023-03-30T00:19:16.050Z,1002.82
2023-03-30T00:20:16.124Z,1002.80
2023-03-30T00:21:16.065Z,1002.77
2023-03-30T00:22:16.046Z,1002.72
2023-03-30T00:23:16.037Z,1002.71
2023-03-30T00:24:16.043Z,1002.72
2023-03-30T00:25:16.064Z,1002.73
2023-03-30T00:26:16.033Z,1002.75
2023-03-30T00:27:16.026Z,1002.71
2023-03-30T00:28:16.029Z,1002.68
2023-03-30T00:29:16.023Z,1002.66
2023-03-30T00:30:16.025Z,1002.66
2023-03-30T00:31:16.077Z,1002.61
2023-03-30T00:32:16.014Z,1002.55
2023-03-30T00:33:16.035Z,1002.54
2023-03-30T00:34:16.001Z,1002.63
2023-03-30T00:35:16.012Z,1002.69
2023-03-30T00:36:16.186Z,1002.71
2023-03-30T00:37:16.009Z,1002.75
2023-03-30T00:38:15.990Z,1002.79
2023-03-30T00:39:15.985Z,1002.75
2023-03-30T00:40:15.987Z,1002.70
2023-03-30T00:41:15.986Z,1002.75
2023-03-30T00:42:15.982Z,1002.74
2023-03-30T00:43:15.996Z,1002.76
2023-03-30T00:44:15.976Z,1002.76
2023-03-30T00:45:15.979Z,1002.83
2023-03-30T00:46:16.044Z,1002.79
2023-03-30T00:47:15.964Z,1002.82
2023-03-30T00:48:15.957Z,1002.80
2023-03-30T00:49:18.856Z,1002.79
2023-03-30T00:50:15.954Z,1002.69
2023-03-30T00:51:15.948Z,1002.70
2023-03-30T00:52:16.294Z,1002.69
2023-03-30T00:53:15.961Z,1002.62
2023-03-30T00:54:15.952Z,1002.54
2023-03-30T00:55:15.938Z,1002.56
2023-03-30T00:56:15.933Z,1002.52
2023-03-30T00:57:15.943Z,1002.49
2023-03-30T00:58:15.936Z,1002.48
2023-03-30T00:59:15.923Z,1002.41
2023-03-30T01:00:15.920Z,1002.34
2023-03-30T01:01:15.976Z,1002.38
2023-03-30T01:02:15.948Z,1002.29
2023-03-30T01:03:16.036Z,1002.27
2023-03-30T01:04:15.914Z,1002.28
2023-03-30T01:05:15.918Z,1002.31
2023-03-30T01:06:15.905Z,1002.23
2023-03-30T01:07:15.899Z,1002.23
2023-03-30T01:08:15.901Z,1002.19
2023-03-30T01:09:15.920Z,1002.17
2023-03-30T01:10:15.892Z,1002.20
2023-03-30T01:11:15.887Z,1002.16
2023-03-30T01:12:15.886Z,1002.15
2023-03-30T01:13:15.890Z,1002.08
2023-03-30T01:14:15.883Z,1002.09
2023-03-30T01:15:15.894Z,1002.06
2023-03-30T01:16:15.920Z,1002.14
2023-03-30T01:17:15.871Z,1002.11
2023-03-30T01:18:15.872Z,1002.17
2023-03-30T01:19:15.872Z,1002.24
2023-03-30T01:20:15.861Z,1002.27
2023-03-30T01:21:15.861Z,1002.29
2023-03-30T01:22:15.862Z,1002.26
2023-03-30T01:23:15.856Z,1002.29
2023-03-30T01:24:15.897Z,1002.36
2023-03-30T01:25:15.865Z,1002.36
2023-03-30T01:26:15.845Z,1002.36
2023-03-30T01:27:15.850Z,1002.36
2023-03-30T01:28:15.838Z,1002.30
2023-03-30T01:29:15.836Z,1002.31
2023-03-30T01:30:15.835Z,1002.35
2023-03-30T01:31:15.971Z,1002.35
2023-03-30T01:32:15.826Z,1002.37
2023-03-30T01:33:15.863Z,1002.39
2023-03-30T01:34:15.825Z,1002.36
2023-03-30T01:35:15.849Z,1002.35
2023-03-30T01:36:15.842Z,1002.33
2023-03-30T01:37:15.814Z,1002.27
2023-03-30T01:38:15.813Z,1002.35
2023-03-30T01:39:15.810Z,1002.40
2023-03-30T01:40:15.804Z,1002.37
2023-03-30T01:41:15.821Z,1002.40
2023-03-30T01:42:15.804Z,1002.43
2023-03-30T01:43:15.793Z,1002.49
2023-03-30T01:44:15.807Z,1002.48
2023-03-30T01:45:15.794Z,1002.46
2023-03-30T01:46:15.902Z,1002.41
2023-03-30T01:47:15.782Z,1002.46
2023-03-30T01:48:15.792Z,1002.45
2023-03-30T01:49:15.780Z,1002.47
2023-03-30T01:50:15.777Z,1002.41
2023-03-30T01:51:15.772Z,1002.41
2023-03-30T01:52:15.772Z,1002.38
2023-03-30T01:53:15.765Z,1002.34
2023-03-30T01:54:15.766Z,1002.36
2023-03-30T01:55:15.765Z,1002.35
2023-03-30T01:56:15.759Z,1002.36
2023-03-30T01:57:19.445Z,1002.40
2023-03-30T01:58:15.754Z,1002.46
2023-03-30T01:59:15.754Z,1002.39
2023-03-30T02:00:15.753Z,1002.42
2023-03-30T02:01:15.751Z,1002.51
2023-03-30T02:02:15.833Z,1002.40
2023-03-30T02:03:15.818Z,1002.43
2023-03-30T02:04:15.732Z,1002.35
2023-03-30T02:05:15.736Z,1002.36
2023-03-30T02:06:15.740Z,1002.36
2023-03-30T02:07:15.770Z,1002.34
2023-03-30T02:08:15.726Z,1002.32
2023-03-30T02:09:15.732Z,1002.33
2023-03-30T02:10:15.725Z,1002.23
2023-03-30T02:11:15.722Z,1002.26
2023-03-30T02:12:15.718Z,1002.25
2023-03-30T02:13:15.734Z,1002.23
2023-03-30T02:14:15.709Z,1002.23
2023-03-30T02:15:15.706Z,1002.17
2023-03-30T02:16:15.773Z,1002.13
2023-03-30T02:17:15.695Z,1002.15
2023-03-30T02:18:15.699Z,1002.22
2023-03-30T02:19:15.698Z,1002.22
2023-03-30T02:20:15.690Z,1002.20
2023-03-30T02:21:15.679Z,1002.20
2023-03-30T02:22:15.682Z,1002.20
2023-03-30T02:23:15.683Z,1002.08
2023-03-30T02:24:15.678Z,1002.01
2023-03-30T02:25:15.686Z,1002.00
2023-03-30T02:26:15.678Z,1001.95
2023-03-30T02:27:15.719Z,1001.97
2023-03-30T02:28:15.721Z,1001.98
2023-03-30T02:29:15.734Z,1002.00
2023-03-30T02:30:15.707Z,1001.96
2023-03-30T02:31:15.759Z,1001.88
2023-03-30T02:32:15.703Z,1001.86
2023-03-30T02:33:15.829Z,1001.83
2023-03-30T02:34:15.665Z,1001.83
2023-03-30T02:35:15.648Z,1001.81
2023-03-30T02:36:15.682Z,1001.76
2023-03-30T02:37:15.643Z,1001.71
2023-03-30T02:38:15.641Z,1001.68
2023-03-30T02:39:15.633Z,1001.62
2023-03-30T02:40:15.627Z,1001.61
2023-03-30T02:41:15.626Z,1001.59
2023-03-30T02:42:15.642Z,1001.60
2023-03-30T02:43:15.621Z,1001.56
2023-03-30T02:44:15.617Z,1001.51
2023-03-30T02:45:15.632Z,1001.53
2023-03-30T02:46:15.720Z,1001.56
2023-03-30T02:47:15.627Z,1001.56
2023-03-30T02:48:15.615Z,1001.60
2023-03-30T02:49:15.615Z,1001.66
2023-03-30T02:50:15.604Z,1001.61
2023-03-30T02:51:15.605Z,1001.66
2023-03-30T02:52:15.595Z,1001.63
2023-03-30T02:53:15.594Z,1001.70
2023-03-30T02:54:15.598Z,1001.68
2023-03-30T02:55:15.595Z,1001.60
2023-03-30T02:56:15.586Z,1001.57
2023-03-30T02:57:15.647Z,1001.51
2023-03-30T02:58:15.834Z,1001.50
2023-03-30T02:59:15.580Z,1001.47
2023-03-30T03:00:15.582Z,1001.51
2023-03-30T03:01:15.633Z,1001.51
2023-03-30T03:02:15.609Z,1001.55
2023-03-30T03:03:15.666Z,1001.51
2023-03-30T03:04:15.663Z,1001.46
2023-03-30T03:05:15.570Z,1001.45
2023-03-30T03:06:15.560Z,1001.42
2023-03-30T03:07:15.554Z,1001.38
2023-03-30T03:08:15.587Z,1001.37
2023-03-30T03:09:15.552Z,1001.41
2023-03-30T03:10:15.552Z,1001.38
2023-03-30T03:11:15.542Z,1001.36
2023-03-30T03:12:15.540Z,1001.35
2023-03-30T03:13:15.554Z,1001.37
2023-03-30T03:14:15.536Z,1001.36
2023-03-30T03:15:15.552Z,1001.37
2023-03-30T03:16:15.550Z,1001.40
2023-03-30T03:17:15.667Z,1001.38
2023-03-30T03:18:15.535Z,1001.37
2023-03-30T03:19:15.517Z,1001.39
2023-03-30T03:20:15.533Z,1001.43
2023-03-30T03:21:15.514Z,1001.47
2023-03-30T03:22:15.512Z,1001.49
2023-03-30T03:23:15.510Z,1001.53
2023-03-30T03:24:15.506Z,1001.54
2023-03-30T03:25:15.528Z,1001.49
2023-03-30T03:26:15.498Z,1001.48
2023-03-30T03:27:15.497Z,1001.47
2023-03-30T03:28:15.506Z,1001.46
2023-03-30T03:29:15.499Z,1001.50
2023-03-30T03:30:15.488Z,1001.46
2023-03-30T03:31:15.511Z,1001.44
2023-03-30T03:32:15.482Z,1001.35
2023-03-30T03:33:15.510Z,1001.37
2023-03-30T03:34:15.480Z,1001.33
2023-03-30T03:35:15.475Z,1001.38
2023-03-30T03:36:15.535Z,1001.38
2023-03-30T03:37:15.469Z,1001.39
2023-03-30T03:38:15.473Z,1001.38
2023-03-30T03:39:15.461Z,1001.43
2023-03-30T03:40:15.461Z,1001.37
2023-03-30T03:41:15.455Z,1001.33
2023-03-30T03:42:15.454Z,1001.31
2023-03-30T03:43:15.454Z,1001.27
2023-03-30T03:44:15.455Z,1001.30
2023-03-30T03:45:15.458Z,1001.28
2023-03-30T03:46:15.523Z,1001.30
2023-03-30T03:47:16.664Z,1001.26
2023-03-30T03:48:15.436Z,1001.23
2023-03-30T03:49:15.461Z,1001.20
2023-03-30T03:50:15.444Z,1001.18
2023-03-30T03:51:15.482Z,1001.21
2023-03-30T03:52:15.448Z,1001.16
2023-03-30T03:53:15.428Z,1001.12
2023-03-30T03:54:15.422Z,1001.09
2023-03-30T03:55:15.425Z,1001.10
2023-03-30T03:56:15.445Z,1001.10
2023-03-30T03:57:15.492Z,1001.11
2023-03-30T03:58:15.868Z,1001.12
2023-03-30T03:59:15.425Z,1001.14
2023-03-30T04:00:15.542Z,1001.11
2023-03-30T04:01:15.422Z,1001.13
2023-03-30T04:02:15.417Z,1001.11
2023-03-30T04:03:15.468Z,1001.13
2023-03-30T04:04:15.435Z,1001.09
2023-03-30T04:05:15.428Z,1001.03
2023-03-30T04:06:15.411Z,1001.03
2023-03-30T04:07:15.414Z,1001.08
2023-03-30T04:08:15.391Z,1000.98
2023-03-30T04:09:15.392Z,1000.97
2023-03-30T04:10:15.395Z,1000.92
2023-03-30T04:11:15.379Z,1000.90
2023-03-30T04:12:15.370Z,1000.92
2023-03-30T04:13:15.381Z,1000.97
2023-03-30T04:14:15.365Z,1000.94
2023-03-30T04:15:15.364Z,1000.97
2023-03-30T04:16:15.396Z,1000.92
2023-03-30T04:17:15.358Z,1000.97
2023-03-30T04:18:15.560Z,1000.97
2023-03-30T04:20:15.368Z,1000.90
2023-03-30T04:21:15.381Z,1000.86
2023-03-30T04:22:15.351Z,1000.83
2023-03-30T04:23:15.342Z,1000.85
2023-03-30T04:24:15.336Z,1000.84
2023-03-30T04:25:15.336Z,1000.79
2023-03-30T04:26:15.347Z,1000.73
2023-03-30T04:27:15.331Z,1000.82
2023-03-30T04:28:15.331Z,1000.82
2023-03-30T04:29:15.337Z,1000.80
2023-03-30T04:30:15.321Z,1000.77
2023-03-30T04:31:15.369Z,1000.75
2023-03-30T04:32:15.329Z,1000.72
2023-03-30T04:33:15.321Z,1000.77
2023-03-30T04:34:15.315Z,1000.81
2023-03-30T04:35:15.314Z,1000.81
2023-03-30T04:36:15.330Z,1000.77
2023-03-30T04:37:15.329Z,1000.77
2023-03-30T04:38:15.301Z,1000.84
2023-03-30T04:39:15.307Z,1000.87
2023-03-30T04:40:15.307Z,1000.86
2023-03-30T04:41:15.294Z,1000.90
2023-03-30T04:42:15.298Z,1000.86
2023-03-30T04:43:15.289Z,1000.94
2023-03-30T04:44:15.287Z,1000.93
2023-03-30T04:45:15.286Z,1000.94
2023-03-30T04:46:15.315Z,1000.94
2023-03-30T04:47:15.287Z,1000.92
2023-03-30T04:48:15.273Z,1000.93
2023-03-30T04:49:15.275Z,1000.95
2023-03-30T04:50:15.276Z,1001.02
2023-03-30T04:51:15.271Z,1001.06
2023-03-30T04:52:15.272Z,1001.06
2023-03-30T04:53:15.323Z,1001.03
2023-03-30T04:54:15.272Z,1001.04
2023-03-30T04:55:15.260Z,1001.05
2023-03-30T04:56:15.259Z,1001.03
2023-03-30T04:57:15.277Z,1001.05
2023-03-30T04:58:15.448Z,1001.12
2023-03-30T04:59:15.247Z,1001.11
2023-03-30T05:00:15.253Z,1001.11
2023-03-30T05:01:15.281Z,1001.10
2023-03-30T05:02:15.268Z,1001.09
2023-03-30T05:03:15.452Z,1001.08
2023-03-30T05:04:15.237Z,1001.07
2023-03-30T05:05:15.236Z,1001.04
2023-03-30T05:06:15.231Z,1001.00
2023-03-30T05:07:15.230Z,1000.99
2023-03-30T05:08:15.221Z,1000.99
2023-03-30T05:09:15.242Z,1001.00
2023-03-30T05:10:15.214Z,1000.98
2023-03-30T05:11:15.219Z,1000.99
2023-03-30T05:12:15.212Z,1001.05
2023-03-30T05:13:15.216Z,1001.01
2023-03-30T05:14:15.206Z,1001.03
2023-03-30T05:15:15.218Z,1001.00
2023-03-30T05:16:15.292Z,1001.05
2023-03-30T05:17:15.292Z,1001.08
2023-03-30T05:18:15.269Z,1001.04
2023-03-30T05:19:15.195Z,1001.07
2023-03-30T05:20:15.188Z,1001.05
2023-03-30T05:21:15.188Z,1001.07
2023-03-30T05:22:15.182Z,1001.08
2023-03-30T05:23:15.210Z,1001.06
2023-03-30T05:24:15.176Z,1001.10
2023-03-30T05:25:15.204Z,1001.13
2023-03-30T05:26:15.220Z,1001.16
2023-03-30T05:27:15.179Z,1001.15
2023-03-30T05:28:15.179Z,1001.14
2023-03-30T05:29:15.167Z,1001.17
2023-03-30T05:30:15.164Z,1001.15
2023-03-30T05:31:15.227Z,1001.19
2023-03-30T05:32:15.158Z,1001.17
2023-03-30T05:33:15.155Z,1001.17
2023-03-30T05:34:15.154Z,1001.18
2023-03-30T05:35:15.151Z,1001.17
2023-03-30T05:36:15.201Z,1001.18
2023-03-30T05:37:15.145Z,1001.19
2023-03-30T05:38:15.141Z,1001.19
2023-03-30T05:39:15.143Z,1001.24
2023-03-30T05:40:15.133Z,1001.18
2023-03-30T05:41:15.155Z,1001.16
2023-03-30T05:42:15.132Z,1001.18
2023-03-30T05:43:15.128Z,1001.20
2023-03-30T05:44:15.122Z,1001.18
2023-03-30T05:45:15.124Z,1001.22
2023-03-30T05:46:15.280Z,1001.18
2023-03-30T05:47:15.119Z,1001.22
2023-03-30T05:48:15.120Z,1001.20
2023-03-30T05:49:15.111Z,1001.25
2023-03-30T05:50:15.125Z,1001.26
2023-03-30T05:51:15.109Z,1001.29
2023-03-30T05:52:15.111Z,1001.30
2023-03-30T05:53:15.105Z,1001.39
2023-03-30T05:54:15.101Z,1001.38
2023-03-30T05:55:15.124Z,1001.38
2023-03-30T05:56:15.091Z,1001.47
2023-03-30T05:57:15.166Z,1001.39
2023-03-30T05:58:15.082Z,1001.39
2023-03-30T05:59:15.092Z,1001.41
2023-03-30T06:00:15.119Z,1001.38
2023-03-30T06:01:15.079Z,1001.38
2023-03-30T06:02:15.079Z,1001.39
2023-03-30T06:03:15.220Z,1001.39
2023-03-30T06:04:15.117Z,1001.40
2023-03-30T06:05:15.072Z,1001.44
2023-03-30T06:06:15.067Z,1001.43
2023-03-30T06:07:15.095Z,1001.41
2023-03-30T06:08:15.058Z,1001.43
2023-03-30T06:09:15.057Z,1001.42
2023-03-30T06:10:15.067Z,1001.39
2023-03-30T06:11:15.069Z,1001.42
2023-03-30T06:12:15.048Z,1001.40
2023-03-30T06:13:15.070Z,1001.42
2023-03-30T06:14:15.061Z,1001.45
2023-03-30T06:15:15.042Z,1001.45
2023-03-30T06:16:15.066Z,1001.38
2023-03-30T06:17:15.037Z,1001.41
2023-03-30T06:18:15.061Z,1001.43
2023-03-30T06:19:15.107Z,1001.44
2023-03-30T06:20:15.033Z,1001.45
2023-03-30T06:21:15.029Z,1001.38
2023-03-30T06:22:15.021Z,1001.34
2023-03-30T06:23:15.022Z,1001.36
2023-03-30T06:24:15.026Z,1001.31
2023-03-30T06:25:15.071Z,1001.35
2023-03-30T06:26:15.009Z,1001.30
2023-03-30T06:27:15.025Z,1001.31
2023-03-30T06:28:15.010Z,1001.29
2023-03-30T06:29:15.026Z,1001.25
2023-03-30T06:30:15.020Z,1001.25
2023-03-30T06:31:15.034Z,1001.20
2023-03-30T06:32:15.065Z,1001.22
2023-03-30T06:33:14.992Z,1001.21
2023-03-30T06:34:14.994Z,1001.26
2023-03-30T06:35:14.991Z,1001.32
2023-03-30T06:36:15.086Z,1001.34
2023-03-30T06:37:14.986Z,1001.34
2023-03-30T06:38:14.986Z,1001.33
2023-03-30T06:39:14.995Z,1001.35
2023-03-30T06:40:14.974Z,1001.34
2023-03-30T06:41:14.975Z,1001.38
2023-03-30T06:42:14.973Z,1001.42
2023-03-30T06:43:14.971Z,1001.42
2023-03-30T06:44:15.035Z,1001.42
2023-03-30T06:45:14.996Z,1001.44
2023-03-30T06:46:15.230Z,1001.42
2023-03-30T06:47:14.962Z,1001.43
2023-03-30T06:48:14.957Z,1001.44
2023-03-30T06:49:14.953Z,1001.44
2023-03-30T06:50:14.957Z,1001.49
2023-03-30T06:51:14.947Z,1001.47
2023-03-30T06:52:14.945Z,1001.48
2023-03-30T06:53:14.941Z,1001.50
2023-03-30T06:54:14.943Z,1001.52
2023-03-30T06:55:14.940Z,1001.51
2023-03-30T06:56:14.937Z,1001.52
2023-03-30T06:57:14.992Z,1001.47
2023-03-30T06:58:14.936Z,1001.55
2023-03-30T06:59:15.231Z,1001.54
2023-03-30T07:00:15.152Z,1001.54
2023-03-30T07:01:15.095Z,1001.50
2023-03-30T07:02:15.029Z,1001.58
2023-03-30T07:03:14.933Z,1001.57
2023-03-30T07:04:14.926Z,1001.60
2023-03-30T07:05:15.068Z,1001.58
2023-03-30T07:06:14.916Z,1001.60
2023-03-30T07:07:14.914Z,1001.63
2023-03-30T07:08:14.909Z,1001.62
2023-03-30T07:09:14.913Z,1001.61
2023-03-30T07:10:14.902Z,1001.59
2023-03-30T07:11:14.911Z,1001.59
2023-03-30T07:12:14.898Z,1001.64
2023-03-30T07:13:14.895Z,1001.63
2023-03-30T07:14:14.889Z,1001.58
2023-03-30T07:15:14.889Z,1001.60
2023-03-30T07:16:14.916Z,1001.64
2023-03-30T07:17:15.075Z,1001.54
2023-03-30T07:18:14.960Z,1001.58
2023-03-30T07:19:14.882Z,1001.59
2023-03-30T07:20:14.882Z,1001.59
2023-03-30T07:21:14.875Z,1001.56
2023-03-30T07:22:14.876Z,1001.61
2023-03-30T07:23:14.928Z,1001.59
2023-03-30T07:24:14.864Z,1001.63
2023-03-30T07:25:14.864Z,1001.64
2023-03-30T07:26:14.861Z,1001.69
2023-03-30T07:27:15.086Z,1001.66
2023-03-30T07:28:14.864Z,1001.67
2023-03-30T07:29:14.857Z,1001.68
2023-03-30T07:30:21.789Z,1001.72
2023-03-30T07:31:14.888Z,1001.72
2023-03-30T07:32:14.865Z,1001.69
2023-03-30T07:33:14.935Z,1001.69
2023-03-30T07:34:14.847Z,1001.65
2023-03-30T07:35:14.839Z,1001.68
2023-03-30T07:36:14.856Z,1001.68
2023-03-30T07:37:20.368Z,1001.68
2023-03-30T07:38:14.838Z,1001.66
2023-03-30T07:39:14.833Z,1001.66
2023-03-30T07:40:14.865Z,1001.67
2023-03-30T07:41:14.841Z,1001.70
2023-03-30T07:42:14.842Z,1001.77
2023-03-30T07:43:14.820Z,1001.67
2023-03-30T07:44:14.812Z,1001.76
2023-03-30T07:45:16.467Z,1001.75
2023-03-30T07:46:14.861Z,1001.77
2023-03-30T07:47:14.816Z,1001.74
2023-03-30T07:48:14.874Z,1001.78
2023-03-30T07:49:14.822Z,1001.72
2023-03-30T07:50:14.814Z,1001.74
2023-03-30T07:51:14.814Z,1001.75
2023-03-30T07:52:14.799Z,1001.75
2023-03-30T07:53:14.794Z,1001.76
2023-03-30T07:54:14.788Z,1001.77
2023-03-30T07:55:14.784Z,1001.80
2023-03-30T07:56:14.781Z,1001.83
2023-03-30T07:57:14.851Z,1001.86
2023-03-30T07:58:14.778Z,1001.89
2023-03-30T07:59:14.826Z,1001.99
2023-03-30T08:00:14.857Z,1002.06
2023-03-30T08:01:14.770Z,1002.21
2023-03-30T08:02:14.814Z,1002.40
2023-03-30T08:03:14.931Z,1002.44
2023-03-30T08:04:15.261Z,1002.50
2023-03-30T08:05:14.894Z,1002.58
2023-03-30T08:06:14.754Z,1002.53
2023-03-30T08:07:14.762Z,1002.60
2023-03-30T08:08:14.752Z,1002.46
2023-03-30T08:09:14.800Z,1002.44
2023-03-30T08:10:14.745Z,1002.43
2023-03-30T08:11:14.769Z,1002.41
2023-03-30T08:12:14.786Z,1002.44
2023-03-30T08:13:14.750Z,1002.38
2023-03-30T08:14:14.853Z,1002.47
2023-03-30T08:15:14.737Z,1002.48
2023-03-30T08:16:14.759Z,1002.42
2023-03-30T08:17:14.723Z,1002.48
2023-03-30T08:18:14.738Z,1002.43
2023-03-30T08:19:14.886Z,1002.50
2023-03-30T08:20:14.722Z,1002.45
2023-03-30T08:21:14.757Z,1002.42
2023-03-30T08:22:14.712Z,1002.49
2023-03-30T08:23:14.712Z,1002.45
2023-03-30T08:24:14.854Z,1002.48
2023-03-30T08:25:14.702Z,1002.45
2023-03-30T08:26:14.700Z,1002.47
2023-03-30T08:27:14.735Z,1002.49
2023-03-30T08:28:14.700Z,1002.55
2023-03-30T08:29:14.695Z,1002.60
2023-03-30T08:30:14.690Z,1002.58
2023-03-30T08:31:14.703Z,1002.55
2023-03-30T08:32:14.685Z,1002.54
2023-03-30T08:33:14.764Z,1002.57
2023-03-30T08:34:14.679Z,1002.57
2023-03-30T08:35:14.683Z,1002.54
2023-03-30T08:36:14.669Z,1002.55
2023-03-30T08:37:14.692Z,1002.58
2023-03-30T08:38:14.664Z,1002.54
2023-03-30T08:39:14.658Z,1002.51
2023-03-30T08:40:16.504Z,1002.55
2023-03-30T08:41:14.687Z,1002.50
2023-03-30T08:42:14.656Z,1002.46
2023-03-30T08:43:14.647Z,1002.47
2023-03-30T08:44:14.650Z,1002.44
2023-03-30T08:45:14.654Z,1002.49
2023-03-30T08:46:14.709Z,1002.46
2023-03-30T08:47:14.655Z,1002.48
2023-03-30T08:48:14.632Z,1002.45
2023-03-30T08:49:14.630Z,1002.48
2023-03-30T08:50:14.631Z,1002.48
2023-03-30T08:51:14.623Z,1002.49
2023-03-30T08:52:14.620Z,1002.49
2023-03-30T08:53:14.639Z,1002.48
2023-03-30T08:54:14.627Z,1002.52
2023-03-30T08:55:14.612Z,1002.47
2023-03-30T08:56:14.614Z,1002.49
2023-03-30T08:57:14.649Z,1002.55
2023-03-30T08:58:14.620Z,1002.56
2023-03-30T08:59:14.608Z,1002.55
2023-03-30T09:00:14.612Z,1002.58
2023-03-30T09:01:14.686Z,1002.57
2023-03-30T09:02:14.591Z,1002.55
2023-03-30T09:03:14.658Z,1002.55
2023-03-30T09:04:14.589Z,1002.55
2023-03-30T09:05:14.622Z,1002.54
2023-03-30T09:06:14.582Z,1002.54
2023-03-30T09:07:14.581Z,1002.47
2023-03-30T09:08:14.588Z,1002.53
2023-03-30T09:09:14.788Z,1002.46
2023-03-30T09:10:14.573Z,1002.54
2023-03-30T09:11:14.565Z,1002.54
2023-03-30T09:12:14.563Z,1002.49
2023-03-30T09:13:14.561Z,1002.63
2023-03-30T09:14:14.557Z,1002.56
2023-03-30T09:15:14.594Z,1002.63
2023-03-30T09:16:14.634Z,1002.61
2023-03-30T09:17:14.553Z,1002.65
2023-03-30T09:18:14.575Z,1002.64
2023-03-30T09:19:14.541Z,1002.67
2023-03-30T09:20:14.546Z,1002.69
2023-03-30T09:21:14.549Z,1002.61
2023-03-30T09:22:14.537Z,1002.69
2023-03-30T09:23:14.537Z,1002.82
2023-03-30T09:24:14.545Z,1002.81
2023-03-30T09:25:14.550Z,1002.91
2023-03-30T09:26:14.526Z,1002.92
2023-03-30T09:27:14.541Z,1003.01
2023-03-30T09:28:14.517Z,1003.01
2023-03-30T09:29:14.525Z,1003.16
2023-03-30T09:30:14.518Z,1003.08
2023-03-30T09:31:14.548Z,1003.17
2023-03-30T09:32:14.599Z,1003.13
2023-03-30T09:33:14.507Z,1003.12
2023-03-30T09:34:14.523Z,1003.23
2023-03-30T09:35:14.624Z,1003.14
2023-03-30T09:36:14.549Z,1003.18
2023-03-30T09:37:14.491Z,1003.10
2023-03-30T09:38:14.499Z,1003.10
2023-03-30T09:39:14.488Z,1003.05
2023-03-30T09:40:14.483Z,1003.10
2023-03-30T09:41:14.503Z,1003.11
2023-03-30T09:42:14.482Z,1003.07
2023-03-30T09:43:14.474Z,1003.09
2023-03-30T09:44:14.474Z,1003.02
2023-03-30T09:45:14.470Z,1003.10
2023-03-30T09:46:14.489Z,1003.14
2023-03-30T09:47:14.460Z,1003.21
2023-03-30T09:48:14.458Z,1003.16
2023-03-30T09:49:14.463Z,1003.18
2023-03-30T09:50:14.465Z,1003.21
2023-03-30T09:51:14.448Z,1003.24
2023-03-30T09:52:14.446Z,1003.20
2023-03-30T09:53:14.444Z,1003.23
2023-03-30T09:54:14.450Z,1003.27
2023-03-30T09:55:14.435Z,1003.30
2023-03-30T09:56:14.434Z,1003.25
2023-03-30T09:57:14.545Z,1003.33
2023-03-30T09:58:14.430Z,1003.36
2023-03-30T09:59:14.430Z,1003.33
2023-03-30T10:00:14.424Z,1003.38
2023-03-30T10:01:14.465Z,1003.44
2023-03-30T10:02:14.441Z,1003.43
2023-03-30T10:03:14.512Z,1003.45
2023-03-30T10:04:14.588Z,1003.45
2023-03-30T10:05:14.501Z,1003.49
2023-03-30T10:06:14.422Z,1003.45
2023-03-30T10:07:18.845Z,1003.49
2023-03-30T10:08:14.400Z,1003.50
2023-03-30T10:09:14.745Z,1003.50
2023-03-30T10:10:14.399Z,1003.43
2023-03-30T10:11:14.393Z,1003.53
2023-03-30T10:12:14.408Z,1003.48
2023-03-30T10:13:14.416Z,1003.47
2023-03-30T10:14:14.384Z,1003.45
2023-03-30T10:15:14.381Z,1003.49
2023-03-30T10:16:14.398Z,1003.45
2023-03-30T10:17:14.373Z,1003.46
2023-03-30T10:18:14.464Z,1003.43
2023-03-30T10:19:14.364Z,1003.40
2023-03-30T10:20:14.581Z,1003.44
2023-03-30T10:21:14.357Z,1003.41
2023-03-30T10:22:14.359Z,1003.46
2023-03-30T10:23:14.365Z,1003.42
2023-03-30T10:24:14.349Z,1003.41
2023-03-30T10:25:14.370Z,1003.39
2023-03-30T10:26:14.347Z,1003.39
2023-03-30T10:27:14.342Z,1003.32
2023-03-30T10:28:14.338Z,1003.35
2023-03-30T10:29:14.358Z,1003.34
2023-03-30T10:30:14.336Z,1003.36
2023-03-30T10:31:14.379Z,1003.42
2023-03-30T10:32:14.327Z,1003.37
2023-03-30T10:33:14.345Z,1003.38
2023-03-30T10:34:14.330Z,1003.40
2023-03-30T10:35:14.317Z,1003.46
2023-03-30T10:36:14.350Z,1003.48
2023-03-30T10:37:14.329Z,1003.44
2023-03-30T10:38:14.314Z,1003.46
2023-03-30T10:39:14.304Z,1003.54
2023-03-30T10:40:14.306Z,1003.54
2023-03-30T10:41:14.307Z,1003.57
2023-03-30T10:42:14.302Z,1003.48
2023-03-30T10:43:14.295Z,1003.50
2023-03-30T10:44:14.290Z,1003.49
2023-03-30T10:45:14.310Z,1003.56
2023-03-30T10:46:19.787Z,1003.50
2023-03-30T10:47:14.353Z,1003.50
2023-03-30T10:48:14.319Z,1003.54
2023-03-30T10:49:14.278Z,1003.56
2023-03-30T10:50:14.282Z,1003.56
2023-03-30T10:51:14.273Z,1003.52
2023-03-30T10:52:14.276Z,1003.53
2023-03-30T10:53:14.273Z,1003.54
2023-03-30T10:54:14.262Z,1003.58
2023-03-30T10:55:14.258Z,1003.52
2023-03-30T10:56:14.266Z,1003.46
2023-03-30T10:57:14.318Z,1003.51
2023-03-30T10:58:14.255Z,1003.48
2023-03-30T10:59:14.256Z,1003.49
2023-03-30T11:00:14.243Z,1003.47
2023-03-30T11:01:14.287Z,1003.43
2023-03-30T11:02:14.239Z,1003.49
2023-03-30T11:03:14.372Z,1003.56
2023-03-30T11:04:23.016Z,1003.47
2023-03-30T11:05:14.229Z,1003.46
2023-03-30T11:06:14.228Z,1003.48
2023-03-30T11:07:14.230Z,1003.52
2023-03-30T11:08:14.223Z,1003.47
2023-03-30T11:09:14.420Z,1003.46
2023-03-30T11:10:14.217Z,1003.51
2023-03-30T11:11:14.213Z,1003.51
2023-03-30T11:12:14.215Z,1003.48
2023-03-30T11:13:14.208Z,1003.48
2023-03-30T11:14:14.209Z,1003.48
2023-03-30T11:15:14.207Z,1003.47
2023-03-30T11:16:14.238Z,1003.51
2023-03-30T11:17:14.355Z,1003.56
2023-03-30T11:18:14.250Z,1003.53
2023-03-30T11:19:14.230Z,1003.59
2023-03-30T11:20:14.187Z,1003.56
2023-03-30T11:21:14.182Z,1003.60
2023-03-30T11:22:14.184Z,1003.48
2023-03-30T11:23:14.178Z,1003.56
2023-03-30T11:24:14.178Z,1003.60
2023-03-30T11:25:14.172Z,1003.62
2023-03-30T11:26:14.171Z,1003.63
2023-03-30T11:27:14.169Z,1003.64
2023-03-30T11:28:14.163Z,1003.64
2023-03-30T11:29:14.162Z,1003.66
2023-03-30T11:30:14.158Z,1003.61
2023-03-30T11:31:14.151Z,1003.69
2023-03-30T11:32:14.165Z,1003.63
2023-03-30T11:33:14.245Z,1003.66
2023-03-30T11:34:14.158Z,1003.56
2023-03-30T11:35:14.158Z,1003.58
2023-03-30T11:36:14.180Z,1003.63
2023-03-30T11:37:14.144Z,1003.54
2023-03-30T11:38:14.138Z,1003.53
2023-03-30T11:39:29.071Z,1003.55
2023-03-30T11:40:14.128Z,1003.57
2023-03-30T11:41:14.128Z,1003.53
2023-03-30T11:42:14.136Z,1003.59
2023-03-30T11:43:14.133Z,1003.53
2023-03-30T11:44:14.119Z,1003.57
2023-03-30T11:45:14.119Z,1003.52
2023-03-30T11:46:14.152Z,1003.48
2023-03-30T11:47:14.108Z,1003.55
2023-03-30T11:48:14.139Z,1003.46
2023-03-30T11:49:14.222Z,1003.40
2023-03-30T11:50:14.101Z,1003.44
2023-03-30T11:51:14.098Z,1003.44
2023-03-30T11:52:14.110Z,1003.37
2023-03-30T11:53:14.092Z,1003.40
2023-03-30T11:54:14.091Z,1003.42
2023-03-30T11:55:14.089Z,1003.41
2023-03-30T11:56:14.128Z,1003.40
2023-03-30T11:57:14.120Z,1003.36
2023-03-30T11:58:14.082Z,1003.43
2023-03-30T11:59:14.080Z,1003.42
2023-03-30T12:00:14.077Z,1003.36
2023-03-30T12:01:14.073Z,1003.46
2023-03-30T12:02:14.081Z,1003.46
2023-03-30T12:03:14.169Z,1003.52
2023-03-30T12:04:14.165Z,1003.50
2023-03-30T12:05:14.110Z,1003.43
2023-03-30T12:06:14.061Z,1003.45